Terminal Aerodrome Forecast
Issued by NWS

Home | Current Version | Previous Version | Text Only | Print | Product List | Glossary On
Versions: 1 2 3 4 5 6 7 8 9 10 11 12 13 14 15 16 17 18 19 20 21 22 23 24 25 26 27 28 29 30 31 32
000
FTUS44 KLIX 190204 AAA
TAFMCB
TAF AMD
KMCB 190204Z 1902/1924 35010G20KT P6SM OVC008
     FM190300 33018G26KT P6SM OVC008
     FM190600 31012KT P6SM SCT008 OVC020=

USA.gov is the U.S. government's official web portal to all federal, state and local government web resources and services.